Hicksville, Virginia
Current Conditions -  °F | °C
As of 4:52 PM on Saturday 25 Oct 2014 (Local Time) from KBLF Reporting Station
Overcast Overcast  
Wind Chill: 17°   Ceiling: 3500
Heat Index: 17°   Visibility: 10mi
Dew Point:   Wind: 12mph
Humidity: 46%   Direction: 260°W
Pressure: 30"   Gusts: 17mph
Location:  37.1593°N, 81.1986°W
Report Text: KBLF 252052Z AUTO 26010G15KT 10SM SCT028 BKN035 OVC055 17/06 A3000 RMK AO2 SLP147 T01720056 56012
Loading
Personal Weather Stations






























Interactive Weather Map
Tropical Storm Tracking
New forecast layout! Learn more

10-Day Weather Forecast

Advertisements
Track Severe Weather on mobile